createdAt,value
2018-07-17T00:01:51.843Z,8.95
2018-07-17T00:04:22.352Z,8.70
2018-07-17T00:06:52.026Z,8.73
2018-07-17T00:09:21.577Z,7.87
2018-07-17T00:11:50.608Z,8.03
2018-07-17T00:14:20.082Z,7.97
2018-07-17T00:16:50.249Z,7.60
2018-07-17T00:19:20.380Z,7.73
2018-07-17T00:21:50.539Z,6.63
2018-07-17T00:24:19.970Z,6.93
2018-07-17T00:26:49.398Z,7.30
2018-07-17T00:29:18.935Z,6.80
2018-07-17T00:31:49.083Z,6.80
2018-07-17T00:34:18.488Z,7.07
2018-07-17T00:36:48.186Z,6.03
2018-07-17T00:39:17.235Z,6.40
2018-07-17T00:41:47.185Z,6.13
2018-07-17T00:44:16.907Z,5.95
2018-07-17T00:46:46.916Z,6.47
2018-07-17T00:49:17.347Z,6.00
2018-07-17T00:51:47.531Z,5.95
2018-07-17T00:54:17.087Z,6.03
2018-07-17T00:56:46.417Z,5.83
2018-07-17T00:59:16.355Z,6.30
2018-07-17T01:01:50.707Z,6.23
2018-07-17T01:04:25.123Z,6.20
2018-07-17T01:07:00.237Z,6.60
2018-07-17T01:09:35.113Z,6.40
2018-07-17T01:12:09.669Z,6.23
2018-07-17T01:14:44.922Z,6.63
2018-07-17T01:17:15.047Z,6.07
2018-07-17T01:19:45.475Z,6.37
2018-07-17T01:22:19.838Z,6.20
2018-07-17T01:24:49.348Z,6.27
2018-07-17T01:27:18.797Z,5.87
2018-07-17T01:29:48.188Z,6.20
2018-07-17T01:32:19.578Z,6.17
2018-07-17T01:34:48.708Z,6.50
2018-07-17T01:37:18.956Z,5.90
2018-07-17T01:39:49.117Z,5.50
2018-07-17T01:42:18.630Z,6.33
2018-07-17T01:44:48.688Z,6.03
2018-07-17T01:47:18.280Z,5.90
2018-07-17T01:49:48.516Z,5.70
2018-07-17T01:52:18.495Z,6.57
2018-07-17T01:54:48.673Z,5.90
2018-07-17T01:57:18.269Z,6.40
2018-07-17T01:59:47.890Z,6.20
2018-07-17T02:02:17.512Z,6.40
2018-07-17T02:04:47.370Z,6.60
2018-07-17T02:07:16.974Z,6.57
2018-07-17T02:09:46.929Z,6.40
2018-07-17T02:12:16.510Z,6.50
2018-07-17T02:14:45.941Z,5.93
2018-07-17T02:17:16.266Z,6.20
2018-07-17T02:19:45.875Z,6.85
2018-07-17T02:22:16.147Z,6.43
2018-07-17T02:24:45.601Z,6.23
2018-07-17T02:27:16.351Z,6.90
2018-07-17T02:29:46.430Z,6.63
2018-07-17T02:32:15.896Z,7.40
2018-07-17T02:34:46.581Z,6.67
2018-07-17T02:37:16.363Z,7.35
2018-07-17T02:39:45.889Z,7.20
2018-07-17T02:42:15.489Z,7.20
2018-07-17T02:44:45.573Z,6.75
2018-07-17T02:47:16.355Z,7.30
2018-07-17T02:49:45.954Z,8.00
2018-07-17T02:52:16.017Z,7.83
2018-07-17T02:54:45.465Z,8.07
2018-07-17T02:57:15.107Z,7.73
2018-07-17T02:59:44.762Z,7.90
2018-07-17T03:02:15.342Z,8.30
2018-07-17T03:04:44.815Z,8.70
2018-07-17T03:07:14.315Z,8.60
2018-07-17T03:09:44.514Z,8.50
2018-07-17T03:12:14.344Z,8.70
2018-07-17T03:14:43.860Z,9.40
2018-07-17T03:17:13.096Z,10.30
2018-07-17T03:19:42.555Z,9.80
2018-07-17T03:22:11.945Z,10.17
2018-07-17T03:24:42.017Z,10.00
2018-07-17T03:27:12.461Z,10.73
2018-07-17T03:29:41.862Z,11.00
2018-07-17T03:32:11.376Z,11.37
2018-07-17T03:34:40.898Z,10.93
2018-07-17T03:37:10.453Z,11.80
2018-07-17T03:39:40.477Z,11.13
2018-07-17T03:42:10.737Z,11.47
2018-07-17T03:45:47.130Z,12.00
2018-07-17T03:48:26.542Z,11.70
2018-07-17T03:51:01.018Z,11.55
2018-07-17T03:53:40.940Z,12.55
2018-07-17T03:56:10.828Z,14.10
2018-07-17T03:58:41.222Z,13.30
2018-07-17T04:01:10.854Z,12.40
2018-07-17T04:03:40.510Z,13.55
2018-07-17T04:06:10.108Z,13.37
2018-07-17T04:08:39.576Z,14.75
2018-07-17T04:11:08.780Z,15.07
2018-07-17T04:13:38.251Z,14.90
2018-07-17T04:16:07.864Z,15.50
2018-07-17T04:18:38.313Z,16.33
2018-07-17T04:21:07.597Z,16.10
2018-07-17T04:23:36.962Z,16.90
2018-07-17T04:26:06.364Z,16.60
2018-07-17T04:28:35.327Z,17.23
2018-07-17T04:31:05.611Z,17.63
2018-07-17T04:33:35.077Z,17.73
2018-07-17T04:36:04.740Z,18.60
2018-07-17T04:38:34.857Z,19.25
2018-07-17T04:41:04.461Z,19.40
2018-07-17T04:43:34.079Z,19.97
2018-07-17T04:46:04.124Z,19.27
2018-07-17T04:48:33.430Z,19.40
2018-07-17T04:51:03.040Z,19.97
2018-07-17T04:53:39.673Z,20.73
2018-07-17T04:56:23.136Z,21.15
2018-07-17T04:58:55.115Z,21.40
2018-07-17T05:01:32.640Z,22.80
2018-07-17T05:04:02.999Z,23.85
2018-07-17T05:06:32.635Z,24.05
2018-07-17T05:09:02.347Z,23.17
2018-07-17T05:11:32.013Z,25.03
2018-07-17T05:14:03.942Z,26.53
2018-07-17T05:16:35.007Z,25.00
2018-07-17T05:19:05.570Z,25.60
2018-07-17T05:21:35.255Z,26.10
2018-07-17T05:24:05.437Z,27.50
2018-07-17T05:26:35.503Z,27.27
2018-07-17T05:29:05.333Z,28.15
2018-07-17T05:31:35.705Z,29.90
2018-07-17T05:34:06.044Z,30.40
2018-07-17T05:36:35.799Z,31.27
2018-07-17T05:39:07.471Z,31.33
2018-07-17T05:41:36.964Z,32.67
2018-07-17T05:44:07.517Z,34.23
2018-07-17T05:46:37.302Z,34.50
2018-07-17T05:49:07.028Z,35.73
2018-07-17T05:51:37.932Z,39.70
2018-07-17T05:54:08.719Z,39.30
2018-07-17T05:56:38.450Z,37.90
2018-07-17T05:59:09.100Z,38.33
2018-07-17T06:01:39.798Z,39.30
2018-07-17T06:04:09.600Z,37.53
2018-07-17T06:06:39.913Z,37.53
2018-07-17T06:09:10.850Z,39.13
2018-07-17T06:11:40.762Z,37.03
2018-07-17T06:14:10.299Z,37.20
2018-07-17T06:16:39.876Z,37.10
2018-07-17T06:19:10.439Z,37.23
2018-07-17T06:21:43.835Z,35.45
2018-07-17T06:24:13.544Z,34.15
2018-07-17T06:26:42.549Z,36.20
2018-07-17T06:29:12.729Z,34.33
2018-07-17T06:31:43.196Z,35.67
2018-07-17T06:34:12.639Z,34.33
2018-07-17T06:36:43.168Z,34.67
2018-07-17T06:39:13.177Z,35.57
2018-07-17T06:41:42.884Z,35.33
2018-07-17T06:44:12.170Z,35.90
2018-07-17T06:46:42.432Z,33.93
2018-07-17T06:49:11.548Z,32.90
2018-07-17T06:51:42.337Z,32.67
2018-07-17T06:54:11.764Z,33.13
2018-07-17T06:56:42.209Z,32.30
2018-07-17T06:59:12.601Z,31.10
2018-07-17T07:01:52.513Z,32.20
2018-07-17T07:04:22.760Z,31.97
2018-07-17T07:06:52.567Z,31.60
2018-07-17T07:09:22.096Z,31.65
2018-07-17T07:11:52.172Z,31.93
2018-07-17T07:14:21.824Z,32.40
2018-07-17T07:16:51.364Z,33.17
2018-07-17T07:19:21.817Z,30.13
2018-07-17T07:21:51.269Z,29.57
2018-07-17T07:24:20.749Z,29.50
2018-07-17T07:26:50.277Z,26.30
2018-07-17T07:29:20.105Z,25.23
2018-07-17T07:31:49.628Z,24.13
2018-07-17T07:34:19.180Z,23.73
2018-07-17T07:36:48.700Z,24.80
2018-07-17T07:39:17.983Z,23.70
2018-07-17T07:41:47.740Z,23.53
2018-07-17T07:44:17.331Z,23.00
2018-07-17T07:46:46.975Z,22.17
2018-07-17T07:49:16.500Z,20.90
2018-07-17T07:51:45.850Z,17.63
2018-07-17T07:54:15.511Z,18.13
2018-07-17T07:56:45.155Z,15.70
2018-07-17T07:59:14.692Z,16.33
2018-07-17T08:01:44.900Z,15.07
2018-07-17T08:04:14.387Z,13.90
2018-07-17T08:06:44.474Z,13.80
2018-07-17T08:09:14.004Z,12.23
2018-07-17T08:11:43.450Z,11.20
2018-07-17T08:14:13.984Z,9.77
2018-07-17T08:16:43.675Z,10.60
2018-07-17T08:19:13.280Z,9.43
2018-07-17T08:21:42.746Z,9.87
2018-07-17T08:24:12.441Z,8.67
2018-07-17T08:26:42.667Z,8.77
2018-07-17T08:29:12.160Z,8.60
2018-07-17T08:31:41.755Z,7.87
2018-07-17T08:34:12.010Z,6.43
2018-07-17T08:36:42.161Z,7.07
2018-07-17T08:39:11.964Z,6.07
2018-07-17T08:41:41.306Z,5.90
2018-07-17T08:44:11.155Z,3.53
2018-07-17T08:46:40.512Z,3.07
2018-07-17T08:49:10.382Z,3.23
2018-07-17T08:51:40.519Z,3.60
2018-07-17T08:54:10.171Z,2.90
2018-07-17T08:56:39.870Z,2.90
2018-07-17T08:59:09.192Z,3.40
2018-07-17T09:01:38.524Z,3.70
2018-07-17T09:04:08.330Z,3.47
2018-07-17T09:06:38.111Z,3.40
2018-07-17T09:09:08.050Z,2.50
2018-07-17T09:11:37.661Z,2.40
2018-07-17T09:14:07.155Z,2.90
2018-07-17T09:16:37.209Z,2.47
2018-07-17T09:19:06.456Z,2.80
2018-07-17T09:21:35.855Z,2.40
2018-07-17T09:24:05.299Z,2.47
2018-07-17T09:26:35.966Z,2.40
2018-07-17T09:29:05.837Z,2.30
2018-07-17T09:31:35.344Z,2.07
2018-07-17T09:34:05.180Z,2.47
2018-07-17T09:36:34.841Z,2.30
2018-07-17T09:39:05.836Z,2.00
2018-07-17T09:41:35.432Z,2.20
2018-07-17T09:44:05.765Z,1.90
2018-07-17T09:46:35.298Z,1.80
2018-07-17T09:49:04.252Z,1.97
2018-07-17T09:51:34.991Z,2.00
2018-07-17T09:54:06.091Z,2.03
2018-07-17T09:56:35.323Z,1.97
2018-07-17T09:59:04.977Z,2.00
2018-07-17T10:01:40.217Z,1.83
2018-07-17T10:04:09.989Z,1.83
2018-07-17T10:06:39.937Z,2.10
2018-07-17T10:09:09.386Z,1.97
2018-07-17T10:11:38.928Z,1.90
2018-07-17T10:14:09.149Z,2.00
2018-07-17T10:16:38.575Z,1.93
2018-07-17T10:19:08.127Z,2.33
2018-07-17T10:21:37.612Z,2.00
2018-07-17T10:24:08.032Z,2.67
2018-07-17T10:26:38.672Z,2.23
2018-07-17T10:29:08.271Z,1.90
2018-07-17T10:31:37.761Z,1.77
2018-07-17T10:34:08.147Z,1.80
2018-07-17T10:36:37.638Z,1.80
2018-07-17T10:39:08.969Z,1.90
2018-07-17T10:41:38.909Z,2.10
2018-07-17T10:44:09.178Z,1.80
2018-07-17T10:46:40.071Z,1.73
2018-07-17T10:49:10.603Z,1.40
2018-07-17T10:51:40.054Z,1.63
2018-07-17T10:54:10.227Z,1.40
2018-07-17T10:56:39.183Z,1.57
2018-07-17T10:59:08.680Z,1.77
2018-07-17T11:01:38.714Z,1.80
2018-07-17T11:04:09.016Z,1.80
2018-07-17T11:06:38.456Z,1.70
2018-07-17T11:09:08.043Z,1.90
2018-07-17T11:11:37.635Z,1.70
2018-07-17T11:14:07.258Z,1.93
2018-07-17T11:16:36.851Z,1.83
2018-07-17T11:19:06.394Z,2.17
2018-07-17T11:21:35.905Z,1.80
2018-07-17T11:24:05.552Z,1.75
2018-07-17T11:26:34.682Z,1.60
2018-07-17T11:29:04.277Z,1.87
2018-07-17T11:31:33.905Z,1.72
2018-07-17T11:34:03.569Z,1.90
2018-07-17T11:36:33.186Z,1.90
2018-07-17T11:39:03.968Z,1.97
2018-07-17T11:41:33.659Z,1.90
2018-07-17T11:44:03.370Z,1.63
2018-07-17T11:46:32.927Z,1.67
2018-07-17T11:49:02.859Z,2.10
2018-07-17T11:51:32.822Z,2.55
2018-07-17T11:54:02.772Z,2.58
2018-07-17T11:56:32.536Z,2.00
2018-07-17T11:59:01.931Z,1.98
2018-07-17T12:01:31.352Z,2.05
2018-07-17T12:04:01.231Z,2.45
2018-07-17T12:06:31.608Z,2.40
2018-07-17T12:09:01.071Z,2.30
2018-07-17T12:11:30.545Z,2.63
2018-07-17T12:14:00.514Z,2.70
2018-07-17T12:16:30.065Z,2.43
2018-07-17T12:18:59.621Z,2.83
2018-07-17T12:21:29.176Z,2.80
2018-07-17T12:23:58.648Z,2.67
2018-07-17T12:26:28.909Z,2.60
2018-07-17T12:28:59.231Z,2.63
2018-07-17T12:31:28.854Z,2.83
2018-07-17T12:33:58.503Z,2.63
2018-07-17T12:36:28.107Z,2.77
2018-07-17T12:38:57.720Z,2.70
2018-07-17T12:41:27.307Z,2.73
2018-07-17T12:43:57.699Z,2.80
2018-07-17T12:46:27.193Z,2.60
2018-07-17T12:48:57.772Z,2.80
2018-07-17T12:51:28.129Z,2.63
2018-07-17T12:53:57.856Z,2.63
2018-07-17T12:56:27.096Z,2.20
2018-07-17T12:58:56.593Z,2.50
2018-07-17T13:01:26.420Z,2.03
2018-07-17T13:03:56.712Z,1.80
2018-07-17T13:06:26.194Z,1.83
2018-07-17T13:08:55.202Z,1.80
2018-07-17T13:11:25.187Z,1.70
2018-07-17T13:13:54.568Z,1.90
2018-07-17T13:16:24.167Z,1.80
2018-07-17T13:18:53.802Z,1.70
2018-07-17T13:21:23.429Z,1.60
2018-07-17T13:23:54.467Z,1.43
2018-07-17T13:26:23.927Z,1.80
2018-07-17T13:28:53.879Z,1.70
2018-07-17T13:31:23.837Z,1.63
2018-07-17T13:33:53.427Z,1.60
2018-07-17T13:36:23.537Z,1.77
2018-07-17T13:38:53.651Z,1.60
2018-07-17T13:41:23.280Z,1.60
2018-07-17T13:43:52.896Z,1.47
2018-07-17T13:46:22.691Z,1.43
2018-07-17T13:48:52.294Z,1.40
2018-07-17T13:51:21.924Z,1.70
2018-07-17T13:53:51.596Z,1.87
2018-07-17T13:56:21.150Z,2.03
2018-07-17T13:58:52.086Z,1.70
2018-07-17T14:01:22.417Z,1.80
2018-07-17T14:03:52.131Z,1.60
2018-07-17T14:06:21.681Z,1.83
2018-07-17T14:08:51.693Z,1.60
2018-07-17T14:11:22.360Z,1.53
2018-07-17T14:13:52.494Z,1.50
2018-07-17T14:16:22.755Z,1.40
2018-07-17T14:18:52.677Z,1.70
2018-07-17T14:21:22.436Z,1.47
2018-07-17T14:23:51.904Z,1.40
2018-07-17T14:26:21.322Z,1.50
2018-07-17T14:28:51.245Z,1.50
2018-07-17T14:31:22.292Z,1.40
2018-07-17T14:33:52.022Z,1.60
2018-07-17T14:36:22.228Z,1.70
2018-07-17T14:38:51.456Z,1.50
2018-07-17T14:41:20.573Z,1.57
2018-07-17T14:43:50.377Z,2.00
2018-07-17T14:46:20.562Z,1.60
2018-07-17T14:48:49.953Z,1.60
2018-07-17T14:51:19.640Z,1.87
2018-07-17T14:53:49.455Z,1.47
2018-07-17T14:56:19.210Z,1.50
2018-07-17T14:58:48.879Z,1.67
2018-07-17T15:01:18.151Z,1.40
2018-07-17T15:03:47.765Z,1.17
2018-07-17T15:06:17.258Z,1.37
2018-07-17T15:08:46.921Z,1.50
2018-07-17T15:11:27.197Z,1.40
2018-07-17T15:13:57.549Z,1.43
2018-07-17T15:16:29.047Z,1.50
2018-07-17T15:18:58.713Z,1.47
2018-07-17T15:21:29.058Z,1.20
2018-07-17T15:23:58.891Z,1.90
2018-07-17T15:26:28.053Z,1.30
2018-07-17T15:28:58.116Z,1.40
2018-07-17T15:31:28.087Z,1.70
2018-07-17T15:33:57.148Z,1.40
2018-07-17T15:36:26.574Z,1.40
2018-07-17T15:38:56.897Z,1.50
2018-07-17T15:41:26.397Z,1.50
2018-07-17T15:43:56.026Z,1.60
2018-07-17T15:46:25.744Z,1.23
2018-07-17T15:48:56.015Z,1.40
2018-07-17T15:51:25.865Z,1.77
2018-07-17T15:53:55.440Z,1.40
2018-07-17T15:56:25.022Z,1.80
2018-07-17T15:58:55.089Z,1.40
2018-07-17T16:01:24.820Z,1.60
2018-07-17T16:03:54.433Z,1.50
2018-07-17T16:06:24.853Z,1.37
2018-07-17T16:08:55.197Z,1.53
2018-07-17T16:11:24.742Z,1.57
2018-07-17T16:13:54.551Z,1.40
2018-07-17T16:16:24.645Z,1.70
2018-07-17T16:18:54.070Z,1.40
2018-07-17T16:21:24.004Z,1.50
2018-07-17T16:23:53.718Z,1.67
2018-07-17T16:26:23.677Z,1.43
2018-07-17T16:28:54.125Z,1.60
2018-07-17T16:31:23.522Z,1.60
2018-07-17T16:33:53.838Z,1.40
2018-07-17T16:36:23.602Z,1.80
2018-07-17T16:38:54.896Z,1.50
2018-07-17T16:41:25.351Z,1.77
2018-07-17T16:43:55.548Z,1.40
2018-07-17T16:46:25.380Z,1.70
2018-07-17T16:48:55.761Z,1.50
2018-07-17T16:51:25.981Z,1.90
2018-07-17T16:53:56.920Z,1.63
2018-07-17T16:56:27.495Z,1.70
2018-07-17T16:58:57.052Z,1.67
2018-07-17T17:01:27.256Z,1.50
2018-07-17T17:03:56.296Z,1.60
2018-07-17T17:06:26.102Z,2.00
2018-07-17T17:08:55.528Z,1.43
2018-07-17T17:11:24.962Z,1.60
2018-07-17T17:13:54.839Z,1.50
2018-07-17T17:16:24.880Z,1.70
2018-07-17T17:18:54.492Z,1.60
2018-07-17T17:21:24.485Z,1.80
2018-07-17T17:23:53.874Z,1.70
2018-07-17T17:26:23.432Z,1.90
2018-07-17T17:28:53.077Z,1.60
2018-07-17T17:31:22.759Z,1.50
2018-07-17T17:33:53.415Z,1.63
2018-07-17T17:36:22.952Z,1.83
2018-07-17T17:38:52.592Z,1.77
2018-07-17T17:41:22.607Z,1.80
2018-07-17T17:43:52.273Z,2.10
2018-07-17T17:46:21.440Z,2.00
2018-07-17T17:48:51.750Z,1.83
2018-07-17T17:51:21.430Z,2.70
2018-07-17T17:53:51.163Z,2.00
2018-07-17T17:56:21.194Z,1.97
2018-07-17T17:58:52.552Z,2.17
2018-07-17T18:01:22.190Z,1.60
2018-07-17T18:03:51.644Z,1.53
2018-07-17T18:06:21.272Z,1.73
2018-07-17T18:08:51.802Z,2.00
2018-07-17T18:11:21.984Z,2.00
2018-07-17T18:13:51.126Z,2.00
2018-07-17T18:16:20.689Z,2.20
2018-07-17T18:18:50.101Z,1.73
2018-07-17T18:21:19.610Z,1.97
2018-07-17T18:23:48.857Z,1.97
2018-07-17T18:26:17.939Z,1.90
2018-07-17T18:28:47.351Z,2.23
2018-07-17T18:31:18.109Z,1.93
2018-07-17T18:33:48.448Z,1.90
2018-07-17T18:36:20.028Z,1.70
2018-07-17T18:38:52.835Z,1.80
2018-07-17T18:41:23.932Z,1.63
2018-07-17T18:43:55.153Z,1.50
2018-07-17T18:46:25.480Z,1.60
2018-07-17T18:48:56.207Z,2.00
2018-07-17T18:51:27.031Z,1.60
2018-07-17T18:53:56.447Z,1.83
2018-07-17T18:56:27.129Z,1.70
2018-07-17T18:58:57.159Z,1.60
2018-07-17T19:01:28.245Z,1.67
2018-07-17T19:03:58.681Z,1.70
2018-07-17T19:06:30.104Z,1.50
2018-07-17T19:08:59.883Z,1.60
2018-07-17T19:11:30.185Z,1.30
2018-07-17T19:14:00.051Z,1.60
2018-07-17T19:16:30.920Z,1.60
2018-07-17T19:19:01.441Z,1.33
2018-07-17T19:21:30.968Z,1.50
2018-07-17T19:24:00.782Z,1.50
2018-07-17T19:26:30.825Z,1.67
2018-07-17T19:29:29.488Z,1.63
2018-07-17T19:38:19.105Z,1.77
2018-07-17T19:40:59.172Z,1.40
2018-07-17T19:46:49.462Z,1.50
2018-07-17T19:52:24.698Z,1.33
2018-07-17T19:54:54.267Z,1.37
2018-07-17T19:57:23.725Z,1.20
2018-07-17T19:59:53.361Z,1.40
2018-07-17T20:02:23.113Z,1.37
2018-07-17T20:04:52.690Z,1.40
2018-07-17T20:07:22.331Z,1.47
2018-07-17T20:09:51.849Z,2.33
2018-07-17T20:12:21.415Z,1.20
2018-07-17T20:14:51.277Z,1.40
2018-07-17T20:17:20.864Z,1.77
2018-07-17T20:19:50.329Z,1.40
2018-07-17T20:22:19.885Z,1.40
2018-07-17T20:24:49.433Z,1.43
2018-07-17T20:27:23.345Z,1.60
2018-07-17T20:29:53.243Z,1.50
2018-07-17T20:32:22.733Z,1.60
2018-07-17T20:34:52.261Z,1.60
2018-07-17T20:37:21.872Z,1.30
2018-07-17T20:39:51.327Z,1.33
2018-07-17T20:42:21.629Z,1.87
2018-07-17T20:44:51.134Z,1.87
2018-07-17T20:47:20.783Z,1.50
2018-07-17T20:49:50.713Z,1.53
2018-07-17T20:52:20.041Z,1.60
2018-07-17T20:54:49.435Z,1.80
2018-07-17T20:57:18.938Z,1.67
2018-07-17T20:59:48.490Z,1.70
2018-07-17T21:02:17.900Z,1.93
2018-07-17T21:04:47.303Z,1.80
2018-07-17T21:07:16.715Z,2.50
2018-07-17T21:09:47.061Z,2.00
2018-07-17T21:12:16.694Z,1.80
2018-07-17T21:14:46.229Z,1.80
2018-07-17T21:17:15.606Z,1.67
2018-07-17T21:19:44.937Z,2.10
2018-07-17T21:22:14.595Z,1.80
2018-07-17T21:24:44.124Z,1.77
2018-07-17T21:27:13.567Z,1.90
2018-07-17T21:29:43.001Z,1.70
2018-07-17T21:32:12.418Z,1.60
2018-07-17T21:34:42.546Z,1.80
2018-07-17T21:37:12.380Z,1.90
2018-07-17T21:39:42.099Z,1.70
2018-07-17T21:42:11.374Z,2.20
2018-07-17T21:44:40.796Z,1.63
2018-07-17T21:47:10.255Z,1.90
2018-07-17T21:49:39.859Z,1.63
2018-07-17T21:52:09.394Z,1.73
2018-07-17T21:54:38.935Z,1.60
2018-07-17T21:57:08.448Z,1.60
2018-07-17T21:59:37.892Z,1.67
2018-07-17T22:02:07.475Z,1.70
2018-07-17T22:04:36.941Z,1.60
2018-07-17T22:07:06.564Z,1.75
2018-07-17T22:09:36.026Z,2.00
2018-07-17T22:12:05.372Z,1.57
2018-07-17T22:14:34.832Z,2.00
2018-07-17T22:17:04.483Z,1.53
2018-07-17T22:19:33.916Z,1.90
2018-07-17T22:22:03.261Z,1.70
2018-07-17T22:24:32.911Z,1.50
2018-07-17T22:27:03.254Z,1.60
2018-07-17T22:29:32.845Z,1.90
2018-07-17T22:32:02.277Z,1.63
2018-07-17T22:34:31.723Z,1.50
2018-07-17T22:37:01.226Z,1.60
2018-07-17T22:39:30.649Z,1.80
2018-07-17T22:42:00.108Z,2.00
2018-07-17T22:44:29.505Z,1.60
2018-07-17T22:46:59.001Z,1.70
2018-07-17T22:49:28.456Z,1.80
2018-07-17T22:51:57.820Z,1.80
2018-07-17T22:54:27.296Z,1.80
2018-07-17T22:56:56.915Z,1.80
2018-07-17T22:59:26.232Z,2.15
2018-07-17T23:01:55.694Z,1.70
2018-07-17T23:04:24.979Z,1.90
2018-07-17T23:06:54.404Z,1.90
2018-07-17T23:09:23.868Z,1.80
2018-07-17T23:11:53.178Z,1.70
2018-07-17T23:16:51.404Z,1.70
2018-07-17T23:19:20.904Z,1.90
2018-07-17T23:21:50.294Z,1.80
2018-07-17T23:26:48.199Z,1.70
2018-07-17T23:31:45.950Z,1.80
2018-07-17T23:36:44.244Z,2.00
2018-07-17T23:41:49.424Z,1.75
2018-07-17T23:44:21.464Z,1.75
2018-07-17T23:46:51.170Z,1.65
2018-07-17T23:49:25.844Z,1.70
2018-07-17T23:54:23.838Z,1.90
2018-07-17T23:59:22.192Z,1.85
